createdAt,value
2019-05-19T00:02:15.568Z,11.10
2019-05-19T00:04:45.683Z,10.90
2019-05-19T00:07:15.441Z,11.50
2019-05-19T00:09:57.022Z,11.83
2019-05-19T00:12:26.598Z,11.83
2019-05-19T00:14:55.493Z,11.63
2019-05-19T00:17:25.442Z,12.73
2019-05-19T00:19:57.522Z,13.03
2019-05-19T00:22:27.695Z,12.03
2019-05-19T00:25:09.618Z,12.23
2019-05-19T00:27:39.214Z,12.63
2019-05-19T00:30:08.497Z,13.63
2019-05-19T00:32:38.176Z,12.37
2019-05-19T00:35:07.574Z,13.27
2019-05-19T00:37:37.144Z,13.67
2019-05-19T00:40:07.361Z,12.60
2019-05-19T00:42:36.931Z,12.93
2019-05-19T00:45:07.288Z,13.33
2019-05-19T00:47:36.946Z,13.60
2019-05-19T00:50:07.388Z,13.57
2019-05-19T00:52:37.592Z,13.93
2019-05-19T00:55:19.271Z,13.83
2019-05-19T00:57:48.279Z,14.53
2019-05-19T01:00:25.901Z,13.10
2019-05-19T01:02:54.794Z,12.93
2019-05-19T01:05:24.912Z,13.87
2019-05-19T01:07:55.427Z,14.27
2019-05-19T01:10:25.548Z,14.80
2019-05-19T01:12:54.421Z,17.30
2019-05-19T01:15:24.185Z,17.23
2019-05-19T01:17:57.890Z,19.10
2019-05-19T01:20:26.806Z,18.80
2019-05-19T01:22:56.003Z,19.03
2019-05-19T01:25:25.558Z,20.47
2019-05-19T01:27:55.221Z,19.67
2019-05-19T01:30:24.932Z,20.07
2019-05-19T01:32:54.478Z,20.90
2019-05-19T01:35:24.163Z,22.43
2019-05-19T01:37:53.345Z,21.00
2019-05-19T01:40:22.239Z,21.33
2019-05-19T01:43:00.160Z,20.73
2019-05-19T01:45:29.330Z,21.70
2019-05-19T01:47:58.907Z,21.63
2019-05-19T01:50:28.563Z,21.83
2019-05-19T01:52:58.322Z,21.13
2019-05-19T01:55:37.069Z,23.37
2019-05-19T01:58:15.446Z,22.37
2019-05-19T02:00:45.394Z,22.67
2019-05-19T02:03:23.790Z,22.47
2019-05-19T02:05:54.072Z,22.67
2019-05-19T02:14:39.097Z,22.13
2019-05-19T02:17:10.042Z,24.03
2019-05-19T02:19:46.917Z,23.23
2019-05-19T02:22:15.809Z,24.00
2019-05-19T02:24:52.851Z,24.40
2019-05-19T02:27:22.682Z,25.10
2019-05-19T02:29:52.218Z,26.43
2019-05-19T02:32:21.234Z,24.40
2019-05-19T02:34:50.770Z,24.47
2019-05-19T02:37:20.618Z,25.53
2019-05-19T02:39:49.625Z,25.93
2019-05-19T02:42:28.039Z,26.67
2019-05-19T02:45:03.887Z,26.13
2019-05-19T02:47:32.991Z,27.53
2019-05-19T02:50:13.022Z,26.23
2019-05-19T02:52:42.006Z,27.80
2019-05-19T02:55:11.558Z,25.63
2019-05-19T02:57:43.876Z,27.53
2019-05-19T03:00:13.923Z,27.63
2019-05-19T03:02:43.146Z,28.53
2019-05-19T03:05:13.580Z,28.10
2019-05-19T03:07:42.470Z,27.67
2019-05-19T03:10:11.350Z,28.47
2019-05-19T03:12:40.544Z,28.43
2019-05-19T03:15:10.176Z,27.97
2019-05-19T03:17:39.718Z,29.20
2019-05-19T03:20:08.710Z,29.70
2019-05-19T03:22:49.519Z,29.67
2019-05-19T03:25:28.521Z,30.33
2019-05-19T03:28:16.139Z,29.97
2019-05-19T03:31:05.137Z,30.70
2019-05-19T03:33:36.415Z,29.63
2019-05-19T03:36:06.254Z,30.43
2019-05-19T03:38:35.154Z,30.57
2019-05-19T03:41:04.712Z,31.23
2019-05-19T03:43:34.543Z,33.03
2019-05-19T03:46:10.349Z,32.63
2019-05-19T03:48:45.114Z,31.87
2019-05-19T03:51:30.969Z,31.07
2019-05-19T03:53:59.618Z,31.97
2019-05-19T03:56:38.258Z,31.43
2019-05-19T03:59:16.147Z,31.47
2019-05-19T04:01:47.519Z,32.37
2019-05-19T04:04:16.389Z,33.13
2019-05-19T04:06:46.231Z,32.30
2019-05-19T04:09:17.539Z,33.17
2019-05-19T04:11:46.754Z,32.77
2019-05-19T04:14:15.656Z,32.67
2019-05-19T04:16:45.221Z,31.93
2019-05-19T04:19:14.874Z,34.37
2019-05-19T04:21:48.787Z,32.50
2019-05-19T04:24:15.261Z,33.00
2019-05-19T04:26:44.909Z,33.37
2019-05-19T04:29:14.604Z,33.67
2019-05-19T04:31:44.158Z,33.07
2019-05-19T04:34:13.705Z,31.70
2019-05-19T04:36:47.806Z,33.33
2019-05-19T04:39:17.383Z,33.23
2019-05-19T04:41:46.950Z,32.63
2019-05-19T04:44:15.933Z,31.07
2019-05-19T04:46:45.611Z,32.93
2019-05-19T04:49:15.166Z,31.90
2019-05-19T04:51:46.931Z,30.33
2019-05-19T04:54:21.822Z,31.93
2019-05-19T04:56:50.924Z,30.07
2019-05-19T04:59:20.466Z,30.50
2019-05-19T05:01:58.137Z,30.80
2019-05-19T05:04:34.270Z,29.50
2019-05-19T05:07:03.928Z,28.70
2019-05-19T05:09:33.534Z,28.90
2019-05-19T05:12:02.431Z,27.93
2019-05-19T05:14:32.030Z,26.83
2019-05-19T05:17:00.917Z,28.43
2019-05-19T05:19:30.799Z,27.10
2019-05-19T05:22:00.363Z,27.77
2019-05-19T05:24:29.273Z,27.77
2019-05-19T05:26:58.848Z,26.83
2019-05-19T05:29:28.416Z,27.63
2019-05-19T05:31:57.981Z,26.70
2019-05-19T05:34:27.678Z,27.47
2019-05-19T05:36:57.758Z,27.97
2019-05-19T05:39:26.702Z,27.67
2019-05-19T05:42:04.891Z,28.33
2019-05-19T05:44:34.077Z,26.93
2019-05-19T05:47:11.013Z,27.97
2019-05-19T05:49:45.348Z,25.80
2019-05-19T05:52:14.347Z,27.73
2019-05-19T05:54:43.226Z,26.20
2019-05-19T05:57:18.019Z,26.97
2019-05-19T05:59:50.056Z,25.53
2019-05-19T06:02:19.691Z,26.80
2019-05-19T06:05:06.990Z,26.90
2019-05-19T06:07:35.870Z,26.73
2019-05-19T06:10:06.669Z,26.10
2019-05-19T06:12:36.326Z,26.50
2019-05-19T06:15:17.372Z,24.17
2019-05-19T06:18:04.428Z,25.43
2019-05-19T06:20:34.097Z,24.17
2019-05-19T06:23:13.373Z,23.17
2019-05-19T06:25:34.030Z,23.23
2019-05-19T06:28:02.911Z,23.17
2019-05-19T06:30:32.459Z,23.27
2019-05-19T06:33:01.984Z,23.47
2019-05-19T06:35:31.536Z,24.93
2019-05-19T06:38:00.810Z,22.73
2019-05-19T06:40:29.674Z,24.03
2019-05-19T06:42:58.575Z,23.60
2019-05-19T06:45:28.182Z,24.10
2019-05-19T06:47:57.153Z,23.60
2019-05-19T06:50:35.712Z,22.83
2019-05-19T06:53:14.219Z,22.63
2019-05-19T06:55:36.579Z,25.03
2019-05-19T06:58:06.127Z,23.80
2019-05-19T07:00:35.803Z,23.23
2019-05-19T07:03:05.838Z,23.67
2019-05-19T07:05:37.219Z,23.70
2019-05-19T07:08:06.499Z,23.90
2019-05-19T07:10:36.046Z,24.07
2019-05-19T07:13:05.237Z,23.73
2019-05-19T07:15:35.256Z,25.70
2019-05-19T07:18:07.313Z,26.67
2019-05-19T07:20:36.196Z,25.40
2019-05-19T07:23:08.387Z,25.47
2019-05-19T07:25:37.271Z,25.13
2019-05-19T07:28:06.473Z,27.43
2019-05-19T07:30:36.087Z,25.67
2019-05-19T07:33:05.625Z,26.77
2019-05-19T07:35:35.195Z,25.90
2019-05-19T07:38:14.260Z,28.10
2019-05-19T07:40:43.146Z,26.10
2019-05-19T07:43:21.176Z,27.60
2019-05-19T07:45:51.864Z,27.73
2019-05-19T07:48:21.378Z,29.70
2019-05-19T07:50:50.367Z,28.57
2019-05-19T07:53:20.262Z,30.03
2019-05-19T07:55:50.289Z,30.00
2019-05-19T07:58:21.107Z,30.27
2019-05-19T08:00:50.040Z,29.33
2019-05-19T08:03:19.035Z,31.27
2019-05-19T08:05:48.633Z,29.87
2019-05-19T08:08:18.204Z,30.97
2019-05-19T08:10:47.115Z,30.07
2019-05-19T08:13:16.955Z,28.47
2019-05-19T08:15:46.515Z,29.33
2019-05-19T08:18:20.477Z,30.43
2019-05-19T08:20:50.071Z,31.30
2019-05-19T08:23:19.260Z,29.80
2019-05-19T08:25:48.954Z,30.83
2019-05-19T08:28:27.573Z,30.70
2019-05-19T08:31:04.004Z,29.10
2019-05-19T08:33:32.914Z,31.60
2019-05-19T08:36:02.578Z,31.17
2019-05-19T08:38:32.401Z,30.57
2019-05-19T08:41:01.707Z,30.83
2019-05-19T08:43:30.667Z,31.27
2019-05-19T08:46:00.846Z,29.80
2019-05-19T08:48:30.521Z,30.43
2019-05-19T08:51:00.066Z,29.60
2019-05-19T08:53:29.636Z,30.40
2019-05-19T08:55:59.600Z,28.90
2019-05-19T08:58:28.485Z,29.73
2019-05-19T09:00:58.079Z,30.63
2019-05-19T09:03:26.970Z,28.85
2019-05-19T09:05:56.270Z,29.23
2019-05-19T09:08:25.851Z,28.80
2019-05-19T09:10:55.553Z,28.10
2019-05-19T09:13:25.118Z,27.40
2019-05-19T09:15:54.700Z,27.77
2019-05-19T09:18:23.599Z,28.27
2019-05-19T09:20:52.765Z,26.93
2019-05-19T09:23:22.335Z,28.30
2019-05-19T09:25:51.909Z,27.17
2019-05-19T09:28:20.858Z,27.65
2019-05-19T09:30:58.420Z,28.90
2019-05-19T09:33:28.069Z,27.97
2019-05-19T09:35:56.980Z,28.50
2019-05-19T09:38:26.542Z,28.37
2019-05-19T09:40:56.138Z,27.27
2019-05-19T09:43:32.172Z,27.93
2019-05-19T09:46:05.611Z,27.97
2019-05-19T09:48:42.233Z,27.93
2019-05-19T09:51:11.852Z,27.77
2019-05-19T09:53:41.409Z,28.50
2019-05-19T09:56:10.312Z,28.07
2019-05-19T09:58:39.887Z,31.13
2019-05-19T10:01:09.461Z,28.80
2019-05-19T10:03:39.441Z,28.43
2019-05-19T10:06:08.998Z,29.47
2019-05-19T10:08:44.561Z,28.97
2019-05-19T10:12:07.457Z,29.67
2019-05-19T10:14:37.126Z,26.60
2019-05-19T10:17:06.335Z,28.37
2019-05-19T10:19:35.916Z,27.73
2019-05-19T10:22:05.687Z,28.03
2019-05-19T10:24:35.261Z,26.80
2019-05-19T10:27:14.213Z,26.77
2019-05-19T10:30:01.217Z,25.63
2019-05-19T10:32:31.966Z,26.60
2019-05-19T10:35:01.821Z,25.53
2019-05-19T10:37:31.546Z,27.63
2019-05-19T10:40:01.250Z,26.90
2019-05-19T10:42:31.346Z,27.57
2019-05-19T10:45:01.067Z,27.60
2019-05-19T10:47:30.633Z,24.33
2019-05-19T10:50:00.277Z,25.40
2019-05-19T10:52:29.847Z,22.70
2019-05-19T10:55:07.064Z,24.72
2019-05-19T10:57:36.741Z,24.92
2019-05-19T11:00:06.788Z,24.57
2019-05-19T11:02:36.480Z,24.27
2019-05-19T11:05:05.459Z,24.70
2019-05-19T11:07:35.142Z,23.18
2019-05-19T11:10:05.933Z,24.07
2019-05-19T11:12:35.746Z,24.17
2019-05-19T11:15:05.462Z,23.63
2019-05-19T11:17:35.057Z,21.60
2019-05-19T11:20:04.993Z,22.53
2019-05-19T11:22:34.948Z,18.40
2019-05-19T11:25:03.953Z,20.60
2019-05-19T11:27:36.027Z,19.30
2019-05-19T11:30:05.301Z,18.03
2019-05-19T11:32:34.294Z,17.33
2019-05-19T11:35:03.906Z,15.80
2019-05-19T11:37:33.510Z,15.93
2019-05-19T11:40:08.428Z,14.80
2019-05-19T11:42:39.163Z,15.97
2019-05-19T11:45:09.438Z,15.40
2019-05-19T11:47:38.337Z,15.80
2019-05-19T11:50:08.219Z,16.10
2019-05-19T11:52:37.826Z,15.17
2019-05-19T11:55:07.755Z,17.23
2019-05-19T11:57:37.350Z,14.37
2019-05-19T12:00:06.521Z,14.80
2019-05-19T12:02:36.558Z,12.82
2019-05-19T12:05:06.433Z,13.00
2019-05-19T12:07:35.340Z,12.43
2019-05-19T12:10:05.498Z,12.78
2019-05-19T12:12:35.191Z,12.17
2019-05-19T12:15:04.251Z,14.05
2019-05-19T12:17:33.165Z,14.40
2019-05-19T12:20:02.743Z,13.70
2019-05-19T12:22:31.981Z,13.78
2019-05-19T12:25:01.539Z,14.55
2019-05-19T12:27:30.449Z,12.80
2019-05-19T12:30:00.051Z,12.23
2019-05-19T12:32:29.633Z,12.60
2019-05-19T12:35:10.677Z,16.77
2019-05-19T12:37:39.904Z,13.40
2019-05-19T12:40:09.884Z,14.23
2019-05-19T12:42:38.801Z,14.60
2019-05-19T12:45:09.308Z,15.45
2019-05-19T12:47:38.286Z,14.18
2019-05-19T12:50:14.462Z,13.78
2019-05-19T12:52:44.656Z,13.43
2019-05-19T12:55:14.384Z,12.70
2019-05-19T12:57:43.949Z,13.98
2019-05-19T13:00:13.320Z,16.27
2019-05-19T13:02:42.890Z,14.83
2019-05-19T13:05:12.560Z,15.33
2019-05-19T13:07:42.142Z,15.20
2019-05-19T13:10:19.936Z,16.00
2019-05-19T13:12:50.016Z,17.12
2019-05-19T13:15:19.682Z,16.00
2019-05-19T13:17:49.712Z,14.90
2019-05-19T13:20:19.752Z,14.47
2019-05-19T13:22:48.642Z,14.85
2019-05-19T13:25:17.586Z,14.20
2019-05-19T13:27:53.741Z,15.80
2019-05-19T13:30:22.892Z,13.88
2019-05-19T13:32:52.911Z,14.43
2019-05-19T13:35:21.811Z,13.25
2019-05-19T13:37:53.483Z,14.73
2019-05-19T13:40:23.031Z,14.28
2019-05-19T13:42:52.693Z,14.03
2019-05-19T13:45:21.865Z,15.60
2019-05-19T13:47:51.433Z,14.33
2019-05-19T13:50:20.364Z,13.83
2019-05-19T13:52:51.288Z,12.63
2019-05-19T13:55:20.419Z,12.67
2019-05-19T13:57:49.325Z,12.80
2019-05-19T14:00:19.046Z,12.23
2019-05-19T14:02:48.674Z,11.10
2019-05-19T14:05:17.954Z,11.57
2019-05-19T14:07:47.207Z,12.50
2019-05-19T14:10:16.221Z,11.90
2019-05-19T14:12:46.497Z,11.97
2019-05-19T14:15:16.330Z,11.63
2019-05-19T14:17:45.893Z,12.77
2019-05-19T14:20:15.549Z,12.80
2019-05-19T14:22:46.627Z,13.83
2019-05-19T14:25:21.052Z,15.67
2019-05-19T14:27:50.634Z,17.23
2019-05-19T14:30:19.546Z,18.60
2019-05-19T14:32:51.393Z,19.90
2019-05-19T14:35:20.941Z,15.13
2019-05-19T14:37:50.251Z,12.33
2019-05-19T14:40:19.249Z,12.20
2019-05-19T14:42:52.978Z,17.83
2019-05-19T14:45:21.907Z,18.60
2019-05-19T14:47:51.738Z,18.97
2019-05-19T14:50:29.784Z,16.63
2019-05-19T14:52:59.058Z,5.00
2019-05-19T14:55:28.640Z,3.87
2019-05-19T14:57:57.549Z,4.60
2019-05-19T15:00:35.058Z,5.07
2019-05-19T15:03:05.805Z,5.27
2019-05-19T15:05:37.614Z,4.60
2019-05-19T15:08:07.465Z,6.33
2019-05-19T15:10:37.056Z,5.67
2019-05-19T15:13:05.931Z,6.60
2019-05-19T15:15:35.887Z,5.20
2019-05-19T15:18:05.065Z,5.40
2019-05-19T15:20:34.266Z,5.27
2019-05-19T15:23:03.954Z,4.67
2019-05-19T15:25:34.821Z,4.87
2019-05-19T15:28:05.542Z,5.10
2019-05-19T15:30:34.975Z,4.80
2019-05-19T15:33:04.557Z,5.53
2019-05-19T15:35:36.032Z,5.07
2019-05-19T15:38:07.219Z,4.50
2019-05-19T15:40:45.847Z,4.70
2019-05-19T15:43:15.382Z,4.70
2019-05-19T15:45:53.829Z,3.60
2019-05-19T15:48:23.390Z,4.77
2019-05-19T15:50:52.694Z,4.33
2019-05-19T15:53:22.263Z,4.20
2019-05-19T15:55:51.206Z,4.00
2019-05-19T15:58:20.093Z,3.87
2019-05-19T16:00:50.018Z,3.67
2019-05-19T16:03:18.926Z,4.50
2019-05-19T16:05:47.834Z,3.90
2019-05-19T16:08:17.450Z,3.73
2019-05-19T16:10:49.883Z,4.00
2019-05-19T16:13:22.169Z,4.13
2019-05-19T16:15:51.410Z,3.13
2019-05-19T16:18:30.458Z,3.83
2019-05-19T16:20:59.484Z,3.43
2019-05-19T16:23:29.080Z,3.10
2019-05-19T16:25:58.665Z,3.63
2019-05-19T16:28:30.906Z,3.10
2019-05-19T16:30:59.569Z,3.53
2019-05-19T16:33:29.763Z,2.90
2019-05-19T16:35:59.694Z,2.97
2019-05-19T16:38:29.266Z,3.13
2019-05-19T16:40:58.837Z,2.97
2019-05-19T16:43:28.411Z,2.53
2019-05-19T16:45:57.963Z,2.53
2019-05-19T16:48:27.323Z,3.10
2019-05-19T16:50:57.151Z,2.57
2019-05-19T16:53:34.315Z,3.43
2019-05-19T16:56:03.210Z,3.27
2019-05-19T16:58:44.548Z,3.50
2019-05-19T17:01:09.601Z,3.77
2019-05-19T17:03:39.628Z,4.77
2019-05-19T17:06:09.936Z,4.20
2019-05-19T17:08:39.494Z,4.53
2019-05-19T17:11:17.963Z,4.67
2019-05-19T17:13:40.389Z,4.30
2019-05-19T17:16:10.511Z,4.40
2019-05-19T17:18:40.268Z,4.70
2019-05-19T17:21:09.164Z,4.77
2019-05-19T17:23:38.711Z,4.83
2019-05-19T17:26:08.749Z,3.93
2019-05-19T17:28:38.322Z,3.73
2019-05-19T17:31:43.101Z,3.83
2019-05-19T17:34:11.981Z,3.60
2019-05-19T17:36:41.536Z,4.17
2019-05-19T17:39:11.111Z,3.90
2019-05-19T17:41:40.342Z,3.97
2019-05-19T17:44:09.549Z,3.60
2019-05-19T17:46:39.180Z,4.03
2019-05-19T17:49:08.069Z,3.97
2019-05-19T17:51:38.247Z,4.47
2019-05-19T17:54:13.115Z,4.80
2019-05-19T17:56:42.942Z,5.27
2019-05-19T17:59:20.359Z,5.03
2019-05-19T18:01:49.367Z,5.30
2019-05-19T18:04:18.937Z,6.33
2019-05-19T18:06:49.593Z,6.27
2019-05-19T18:09:18.775Z,6.40
2019-05-19T18:11:47.682Z,8.30
2019-05-19T18:14:16.969Z,7.67
2019-05-19T18:17:16.368Z,8.53
2019-05-19T18:19:46.174Z,8.80
2019-05-19T18:22:15.082Z,10.63
2019-05-19T18:25:14.346Z,10.60
2019-05-19T18:27:43.244Z,12.73
2019-05-19T18:30:13.299Z,13.40
2019-05-19T18:33:17.261Z,13.63
2019-05-19T18:35:46.835Z,12.73
2019-05-19T18:38:16.025Z,11.97
2019-05-19T18:41:06.305Z,12.27
2019-05-19T18:43:35.398Z,9.37
2019-05-19T18:46:05.233Z,9.57
2019-05-19T18:48:35.937Z,9.33
2019-05-19T18:51:05.491Z,8.60
2019-05-19T18:53:36.734Z,9.43
2019-05-19T18:56:12.169Z,9.40
2019-05-19T18:58:41.093Z,8.33
2019-05-19T19:01:09.981Z,8.10
2019-05-19T19:03:40.183Z,7.93
2019-05-19T19:06:21.918Z,8.77
2019-05-19T19:08:50.815Z,8.30
2019-05-19T19:11:23.405Z,8.37
2019-05-19T19:13:52.986Z,8.70
2019-05-19T19:16:21.902Z,7.90
2019-05-19T19:18:57.635Z,8.47
2019-05-19T19:21:26.661Z,8.90
2019-05-19T19:24:01.924Z,9.40
2019-05-19T19:26:30.857Z,9.43
2019-05-19T19:29:00.412Z,8.57
2019-05-19T19:31:29.650Z,8.73
2019-05-19T19:33:58.939Z,8.50
2019-05-19T19:36:32.257Z,8.23
2019-05-19T19:39:18.288Z,8.00
2019-05-19T19:41:47.532Z,8.63
2019-05-19T19:44:17.155Z,8.50
2019-05-19T19:46:46.709Z,7.97
2019-05-19T19:49:22.828Z,8.13
2019-05-19T19:51:52.485Z,8.33
2019-05-19T19:54:28.153Z,8.03
2019-05-19T19:57:00.510Z,8.40
2019-05-19T19:59:30.141Z,7.20
2019-05-19T20:02:10.640Z,7.57
2019-05-19T20:04:30.726Z,7.60
2019-05-19T20:07:00.369Z,7.97
2019-05-19T20:09:33.604Z,8.47
2019-05-19T20:12:04.161Z,7.37
2019-05-19T20:14:34.644Z,7.97
2019-05-19T20:17:04.145Z,8.63
2019-05-19T20:19:33.352Z,7.67
2019-05-19T20:22:03.443Z,10.17
2019-05-19T20:24:32.354Z,8.43
2019-05-19T20:27:01.281Z,8.50
2019-05-19T20:29:30.884Z,8.80
2019-05-19T20:32:00.737Z,8.77
2019-05-19T20:34:30.320Z,8.60
2019-05-19T20:36:59.870Z,8.57
2019-05-19T20:39:35.906Z,8.97
2019-05-19T20:42:04.803Z,9.27
2019-05-19T20:44:34.454Z,8.90
2019-05-19T20:47:03.349Z,9.70
2019-05-19T20:49:33.282Z,9.73
2019-05-19T20:52:02.493Z,10.07
2019-05-19T20:54:32.045Z,10.43
2019-05-19T20:57:01.052Z,10.97
2019-05-19T20:59:30.229Z,10.03
2019-05-19T21:01:59.815Z,10.50
2019-05-19T21:04:29.381Z,11.37
2019-05-19T21:07:07.908Z,10.50
2019-05-19T21:09:37.013Z,10.90
2019-05-19T21:12:06.607Z,11.30
2019-05-19T21:14:35.783Z,11.57
2019-05-19T21:17:04.707Z,12.43
2019-05-19T21:19:34.258Z,12.60
2019-05-19T21:22:27.598Z,13.47
2019-05-19T21:25:03.860Z,13.37
2019-05-19T21:27:33.436Z,13.23
2019-05-19T21:30:03.127Z,12.77
2019-05-19T21:32:32.720Z,13.53
2019-05-19T21:35:02.310Z,14.23
2019-05-19T21:37:33.315Z,13.60
2019-05-19T21:40:02.209Z,13.87
2019-05-19T21:42:31.766Z,13.60
2019-05-19T21:45:00.662Z,15.47
2019-05-19T21:47:29.589Z,16.37
2019-05-19T21:49:59.154Z,18.87
2019-05-19T21:52:28.341Z,18.67
2019-05-19T21:55:16.751Z,20.67
2019-05-19T21:57:45.758Z,19.63
2019-05-19T22:00:14.953Z,22.03
2019-05-19T22:02:44.573Z,22.03
2019-05-19T22:05:15.618Z,21.97
2019-05-19T22:07:59.293Z,23.30
2019-05-19T22:10:28.277Z,22.30
2019-05-19T22:12:57.531Z,23.47
2019-05-19T22:15:27.527Z,25.00
2019-05-19T22:18:05.912Z,27.37
2019-05-19T22:20:35.502Z,24.97
2019-05-19T22:23:05.350Z,25.67
2019-05-19T22:25:35.121Z,26.23
2019-05-19T22:28:04.684Z,27.27
2019-05-19T22:30:33.977Z,26.40
2019-05-19T22:33:02.839Z,28.60
2019-05-19T22:35:31.757Z,30.97
2019-05-19T22:38:00.973Z,30.40
2019-05-19T22:40:30.634Z,30.10
2019-05-19T22:42:59.541Z,31.20
2019-05-19T22:45:28.705Z,31.20
2019-05-19T22:47:57.637Z,32.97
2019-05-19T22:50:27.646Z,33.30
2019-05-19T23:00:23.881Z,36.27
2019-05-19T23:02:53.454Z,34.83
2019-05-19T23:05:29.555Z,37.53
2019-05-19T23:08:07.932Z,36.33
2019-05-19T23:10:36.938Z,38.53
2019-05-19T23:13:08.284Z,40.53
2019-05-19T23:15:36.995Z,36.87
2019-05-19T23:18:07.246Z,40.63
2019-05-19T23:20:36.783Z,40.37
2019-05-19T23:23:05.785Z,38.70
2019-05-19T23:25:35.623Z,39.47
2019-05-19T23:28:06.026Z,38.60
2019-05-19T23:30:35.675Z,38.93
2019-05-19T23:33:04.574Z,39.53
2019-05-19T23:35:34.183Z,37.63
2019-05-19T23:38:03.807Z,36.73
2019-05-19T23:40:33.581Z,40.10
2019-05-19T23:43:20.461Z,39.90
2019-05-19T23:45:50.038Z,40.03
2019-05-19T23:48:19.703Z,40.77
2019-05-19T23:50:56.813Z,40.10
2019-05-19T23:53:26.494Z,40.90
2019-05-19T23:55:56.325Z,40.73
2019-05-19T23:58:25.902Z,42.10
